createdAt,value
2019-03-30T00:01:50.384Z,31.20
2019-03-30T00:04:21.456Z,32.65
2019-03-30T00:06:52.008Z,32.20
2019-03-30T00:09:22.503Z,31.65
2019-03-30T00:11:53.346Z,31.85
2019-03-30T00:14:24.168Z,32.73
2019-03-30T00:16:54.750Z,32.25
2019-03-30T00:19:34.795Z,31.27
2019-03-30T00:21:57.812Z,32.90
2019-03-30T00:24:29.111Z,32.95
2019-03-30T00:26:59.935Z,33.30
2019-03-30T00:29:30.662Z,33.98
2019-03-30T00:32:01.404Z,35.68
2019-03-30T00:34:32.274Z,34.43
2019-03-30T00:37:02.998Z,33.55
2019-03-30T00:39:33.495Z,33.95
2019-03-30T00:42:04.439Z,37.42
2019-03-30T00:44:36.920Z,35.13
2019-03-30T00:47:07.258Z,31.27
2019-03-30T00:49:48.374Z,33.08
2019-03-30T00:52:09.950Z,30.45
2019-03-30T00:54:40.579Z,30.82
2019-03-30T00:57:11.517Z,32.63
2019-03-30T00:59:42.120Z,31.85
2019-03-30T01:02:12.987Z,30.15
2019-03-30T01:04:43.814Z,31.62
2019-03-30T01:07:14.477Z,31.70
2019-03-30T01:09:45.095Z,35.20
2019-03-30T01:12:16.059Z,32.60
2019-03-30T01:14:46.470Z,31.05
2019-03-30T01:17:17.171Z,31.70
2019-03-30T01:19:47.968Z,28.17
2019-03-30T01:22:18.766Z,29.37
2019-03-30T01:24:49.234Z,29.18
2019-03-30T01:27:19.899Z,30.23
2019-03-30T01:29:50.484Z,29.37
2019-03-30T01:32:26.655Z,31.05
2019-03-30T01:34:57.480Z,30.77
2019-03-30T01:37:28.140Z,29.45
2019-03-30T01:39:58.637Z,27.98
2019-03-30T01:42:29.452Z,29.32
2019-03-30T01:45:01.343Z,28.60
2019-03-30T01:47:32.126Z,28.65
2019-03-30T01:50:16.192Z,28.47
2019-03-30T01:52:34.970Z,25.65
2019-03-30T01:55:07.633Z,31.45
2019-03-30T01:57:38.296Z,27.40
2019-03-30T02:00:10.788Z,26.50
2019-03-30T02:02:41.692Z,26.47
2019-03-30T02:05:12.342Z,31.02
2019-03-30T02:07:42.988Z,25.95
2019-03-30T02:10:14.496Z,26.10
2019-03-30T02:12:45.079Z,26.48
2019-03-30T02:15:15.799Z,27.37
2019-03-30T02:17:47.488Z,28.62
2019-03-30T02:20:30.385Z,28.70
2019-03-30T02:22:52.610Z,26.80
2019-03-30T02:25:23.743Z,28.02
2019-03-30T02:27:54.389Z,28.47
2019-03-30T02:30:26.630Z,27.13
2019-03-30T02:32:57.230Z,28.57
2019-03-30T02:35:28.028Z,26.40
2019-03-30T02:37:58.887Z,31.82
2019-03-30T02:40:29.461Z,28.40
2019-03-30T02:43:00.121Z,27.62
2019-03-30T02:45:31.160Z,26.00
2019-03-30T02:48:01.839Z,24.43
2019-03-30T02:50:48.305Z,30.12
2019-03-30T02:53:04.798Z,28.57
2019-03-30T02:55:35.563Z,27.00
2019-03-30T02:58:06.198Z,26.57
2019-03-30T03:00:37.347Z,25.72
2019-03-30T03:03:08.183Z,23.77
2019-03-30T03:05:38.842Z,25.02
2019-03-30T03:08:09.592Z,23.22
2019-03-30T03:10:40.518Z,24.67
2019-03-30T03:13:11.178Z,25.45
2019-03-30T03:15:42.149Z,26.07
2019-03-30T03:18:12.802Z,24.80
2019-03-30T03:20:43.528Z,24.67
2019-03-30T03:23:14.482Z,22.98
2019-03-30T03:25:45.583Z,23.62
2019-03-30T03:28:16.500Z,23.55
2019-03-30T03:30:47.587Z,24.05
2019-03-30T03:33:18.429Z,24.70
2019-03-30T03:35:49.184Z,23.20
2019-03-30T03:38:20.227Z,23.57
2019-03-30T03:40:51.827Z,22.30
2019-03-30T03:43:22.406Z,24.43
2019-03-30T03:45:53.495Z,20.27
2019-03-30T03:48:24.163Z,21.80
2019-03-30T03:50:57.458Z,22.15
2019-03-30T03:53:28.501Z,22.80
2019-03-30T03:55:59.915Z,23.12
2019-03-30T03:58:32.732Z,24.63
2019-03-30T04:01:03.931Z,21.68
2019-03-30T04:03:35.439Z,22.75
2019-03-30T04:06:07.867Z,21.68
2019-03-30T04:08:38.702Z,25.27
2019-03-30T04:11:09.642Z,22.98
2019-03-30T04:13:40.531Z,22.90
2019-03-30T04:16:11.503Z,21.35
2019-03-30T04:18:42.088Z,21.57
2019-03-30T04:21:13.210Z,20.88
2019-03-30T04:23:43.909Z,24.37
2019-03-30T04:26:14.549Z,20.85
2019-03-30T04:28:45.585Z,20.57
2019-03-30T04:31:16.304Z,21.95
2019-03-30T04:33:47.021Z,22.35
2019-03-30T04:36:17.944Z,24.05
2019-03-30T04:38:48.732Z,21.57
2019-03-30T04:41:19.592Z,23.52
2019-03-30T04:43:50.486Z,23.45
2019-03-30T04:46:21.019Z,22.62
2019-03-30T04:48:51.736Z,20.57
2019-03-30T04:51:22.735Z,34.15
2019-03-30T04:53:53.310Z,30.37
2019-03-30T04:56:23.704Z,25.95
2019-03-30T04:58:54.397Z,31.25
2019-03-30T05:01:25.113Z,22.98
2019-03-30T05:03:55.853Z,23.32
2019-03-30T05:06:26.670Z,30.50
2019-03-30T05:08:57.521Z,27.25
2019-03-30T05:11:27.922Z,27.02
2019-03-30T05:13:58.816Z,24.52
2019-03-30T05:16:29.592Z,24.35
2019-03-30T05:19:00.394Z,23.65
2019-03-30T05:21:31.357Z,22.20
2019-03-30T05:24:02.283Z,22.58
2019-03-30T05:26:33.160Z,19.23
2019-03-30T05:29:04.220Z,21.37
2019-03-30T05:31:35.070Z,21.57
2019-03-30T05:34:05.580Z,21.10
2019-03-30T05:36:36.616Z,21.93
2019-03-30T05:39:07.334Z,20.72
2019-03-30T05:41:38.067Z,21.35
2019-03-30T05:44:09.538Z,23.85
2019-03-30T05:46:40.234Z,21.95
2019-03-30T05:49:11.026Z,21.57
2019-03-30T05:54:26.443Z,20.25
2019-03-30T05:56:56.876Z,25.77
2019-03-30T05:59:27.601Z,21.02
2019-03-30T06:01:58.342Z,20.95
2019-03-30T06:04:29.378Z,21.90
2019-03-30T06:06:59.908Z,20.30
2019-03-30T06:09:30.519Z,20.65
2019-03-30T06:12:01.258Z,20.23
2019-03-30T06:14:32.043Z,20.92
2019-03-30T06:17:02.751Z,19.75
2019-03-30T06:19:33.592Z,20.80
2019-03-30T06:22:04.340Z,19.87
2019-03-30T06:24:34.917Z,20.00
2019-03-30T06:27:06.228Z,18.52
2019-03-30T06:29:36.848Z,19.57
2019-03-30T06:32:07.571Z,18.95
2019-03-30T06:34:38.495Z,19.67
2019-03-30T06:37:09.156Z,19.82
2019-03-30T06:39:39.888Z,18.85
2019-03-30T06:42:10.913Z,19.95
2019-03-30T06:44:41.519Z,19.17
2019-03-30T06:47:12.564Z,18.87
2019-03-30T06:49:43.696Z,18.90
2019-03-30T06:52:14.314Z,19.40
2019-03-30T06:54:44.931Z,20.32
2019-03-30T06:57:15.748Z,19.32
2019-03-30T06:59:46.523Z,18.48
2019-03-30T07:02:17.105Z,19.75
2019-03-30T07:04:48.171Z,19.67
2019-03-30T07:07:19.001Z,19.30
2019-03-30T07:09:51.849Z,19.05
2019-03-30T07:12:25.175Z,18.15
2019-03-30T07:14:55.880Z,18.52
2019-03-30T07:17:26.382Z,18.35
2019-03-30T07:19:57.076Z,17.95
2019-03-30T07:22:27.977Z,19.25
2019-03-30T07:24:58.526Z,18.85
2019-03-30T07:27:29.542Z,19.80
2019-03-30T07:30:00.398Z,18.77
2019-03-30T07:32:31.090Z,18.70
2019-03-30T07:35:01.859Z,19.87
2019-03-30T07:37:32.545Z,18.07
2019-03-30T07:40:03.300Z,18.85
2019-03-30T07:42:34.267Z,18.52
2019-03-30T07:45:06.052Z,18.45
2019-03-30T07:47:36.718Z,19.42
2019-03-30T07:50:09.212Z,18.57
2019-03-30T07:52:40.195Z,17.85
2019-03-30T07:55:10.829Z,17.52
2019-03-30T07:57:41.671Z,18.87
2019-03-30T08:00:12.546Z,18.48
2019-03-30T08:02:43.519Z,18.05
2019-03-30T08:05:14.702Z,17.52
2019-03-30T08:07:45.419Z,18.52
2019-03-30T08:10:16.066Z,19.60
2019-03-30T08:12:46.874Z,17.57
2019-03-30T08:15:18.045Z,18.45
2019-03-30T08:17:51.223Z,18.17
2019-03-30T08:20:22.031Z,18.02
2019-03-30T08:22:52.746Z,18.55
2019-03-30T08:25:23.314Z,18.07
2019-03-30T08:27:54.262Z,17.42
2019-03-30T08:30:24.808Z,19.50
2019-03-30T08:32:55.452Z,18.10
2019-03-30T08:35:26.346Z,17.32
2019-03-30T08:37:57.002Z,16.65
2019-03-30T08:40:27.694Z,19.23
2019-03-30T08:42:58.462Z,18.98
2019-03-30T08:45:29.195Z,16.45
2019-03-30T08:47:59.864Z,17.20
2019-03-30T08:50:31.295Z,16.87
2019-03-30T08:53:02.136Z,16.82
2019-03-30T08:55:32.936Z,16.65
2019-03-30T08:58:03.905Z,15.98
2019-03-30T09:00:37.061Z,17.50
2019-03-30T09:03:08.034Z,17.37
2019-03-30T09:05:39.125Z,16.48
2019-03-30T09:08:09.981Z,16.95
2019-03-30T09:10:40.605Z,16.67
2019-03-30T09:13:11.627Z,17.02
2019-03-30T09:15:42.321Z,17.40
2019-03-30T09:18:12.977Z,16.20
2019-03-30T09:20:43.670Z,17.30
2019-03-30T09:23:15.295Z,17.50
2019-03-30T09:25:45.815Z,16.55
2019-03-30T09:28:16.783Z,16.80
2019-03-30T09:30:47.462Z,16.52
2019-03-30T09:33:18.255Z,17.60
2019-03-30T09:35:49.349Z,17.20
2019-03-30T09:38:19.944Z,16.35
2019-03-30T09:40:50.734Z,15.72
2019-03-30T09:43:21.567Z,15.90
2019-03-30T09:45:52.094Z,17.50
2019-03-30T09:48:22.914Z,15.68
2019-03-30T09:50:53.872Z,16.70
2019-03-30T09:53:24.736Z,16.25
2019-03-30T09:55:55.448Z,17.12
2019-03-30T09:58:26.599Z,16.02
2019-03-30T10:00:57.279Z,16.93
2019-03-30T10:03:28.031Z,16.42
2019-03-30T10:05:58.822Z,17.40
2019-03-30T10:08:29.501Z,15.45
2019-03-30T10:11:00.134Z,17.05
2019-03-30T10:13:31.085Z,17.12
2019-03-30T10:16:01.694Z,17.10
2019-03-30T10:18:32.230Z,17.02
2019-03-30T10:21:03.207Z,16.15
2019-03-30T10:23:33.731Z,16.80
2019-03-30T10:26:04.476Z,17.25
2019-03-30T10:28:35.575Z,17.05
2019-03-30T10:31:06.195Z,16.02
2019-03-30T10:33:36.842Z,16.57
2019-03-30T10:36:07.612Z,16.50
2019-03-30T10:38:38.277Z,16.20
2019-03-30T10:41:08.703Z,17.27
2019-03-30T10:43:39.482Z,17.30
2019-03-30T10:46:10.244Z,15.58
2019-03-30T10:48:40.986Z,15.98
2019-03-30T10:51:12.063Z,17.45
2019-03-30T10:53:42.628Z,15.63
2019-03-30T10:56:14.077Z,16.30
2019-03-30T10:58:45.136Z,18.37
2019-03-30T11:01:15.718Z,17.25
2019-03-30T11:03:46.186Z,16.82
2019-03-30T11:06:17.080Z,18.73
2019-03-30T11:08:47.954Z,15.58
2019-03-30T11:11:18.681Z,14.93
2019-03-30T11:13:49.801Z,16.55
2019-03-30T11:16:20.510Z,17.65
2019-03-30T11:18:51.130Z,16.82
2019-03-30T11:21:21.966Z,17.70
2019-03-30T11:23:52.712Z,19.70
2019-03-30T11:26:23.584Z,18.67
2019-03-30T11:28:54.488Z,17.67
2019-03-30T11:31:24.925Z,18.00
2019-03-30T11:33:55.582Z,16.95
2019-03-30T11:36:26.451Z,19.23
2019-03-30T11:38:59.746Z,18.90
2019-03-30T11:41:30.656Z,18.67
2019-03-30T11:44:01.066Z,20.65
2019-03-30T11:46:31.959Z,20.25
2019-03-30T11:49:02.725Z,20.35
2019-03-30T11:51:36.487Z,20.65
2019-03-30T11:54:07.750Z,21.50
2019-03-30T11:56:39.020Z,20.20
2019-03-30T11:59:10.075Z,20.57
2019-03-30T12:01:41.495Z,22.30
2019-03-30T12:04:12.518Z,22.37
2019-03-30T12:06:43.354Z,23.57
2019-03-30T12:09:14.206Z,27.93
2019-03-30T12:11:45.324Z,25.88
2019-03-30T12:14:16.229Z,25.97
2019-03-30T12:16:47.015Z,23.87
2019-03-30T12:19:18.015Z,26.57
2019-03-30T12:21:48.754Z,25.90
2019-03-30T12:24:19.514Z,25.40
2019-03-30T12:26:50.460Z,24.10
2019-03-30T12:29:21.028Z,22.48
2019-03-30T12:31:51.912Z,23.70
2019-03-30T12:34:23.113Z,22.02
2019-03-30T12:36:55.842Z,21.40
2019-03-30T12:39:25.697Z,22.85
2019-03-30T12:41:56.728Z,23.07
2019-03-30T12:44:27.381Z,20.90
2019-03-30T12:46:58.110Z,22.00
2019-03-30T12:49:29.133Z,21.90
2019-03-30T12:51:59.860Z,21.57
2019-03-30T12:54:30.589Z,20.05
2019-03-30T12:57:01.426Z,20.62
2019-03-30T12:59:32.111Z,20.72
2019-03-30T13:02:02.777Z,22.10
2019-03-30T13:04:35.876Z,21.75
2019-03-30T13:07:06.718Z,22.98
2019-03-30T13:09:37.237Z,24.75
2019-03-30T13:12:08.289Z,29.77
2019-03-30T13:14:38.912Z,25.02
2019-03-30T13:17:09.534Z,23.55
2019-03-30T13:19:40.691Z,25.68
2019-03-30T13:22:11.461Z,26.00
2019-03-30T13:24:42.067Z,26.20
2019-03-30T13:27:13.208Z,27.05
2019-03-30T13:29:43.796Z,27.00
2019-03-30T13:32:14.650Z,27.87
2019-03-30T13:34:46.137Z,26.87
2019-03-30T13:37:18.689Z,27.60
2019-03-30T13:39:50.321Z,26.80
2019-03-30T13:42:21.093Z,28.85
2019-03-30T13:44:51.682Z,27.40
2019-03-30T13:47:22.791Z,29.12
2019-03-30T13:49:53.488Z,30.20
2019-03-30T13:52:24.318Z,34.23
2019-03-30T13:54:55.238Z,32.48
2019-03-30T13:57:25.921Z,31.20
2019-03-30T13:59:56.468Z,32.17
2019-03-30T14:02:27.393Z,31.70
2019-03-30T14:04:58.141Z,33.15
2019-03-30T14:07:28.864Z,31.30
2019-03-30T14:09:59.579Z,30.50
2019-03-30T14:12:29.989Z,31.73
2019-03-30T14:15:00.630Z,30.82
2019-03-30T14:17:31.944Z,27.95
2019-03-30T14:20:02.716Z,32.03
2019-03-30T14:22:33.727Z,31.73
2019-03-30T14:25:04.739Z,31.90
2019-03-30T14:27:35.259Z,31.68
2019-03-30T14:30:07.353Z,28.55
2019-03-30T14:32:38.140Z,31.35
2019-03-30T14:35:09.477Z,32.08
2019-03-30T14:37:40.367Z,29.95
2019-03-30T14:40:11.221Z,31.25
2019-03-30T14:42:41.986Z,31.50
2019-03-30T14:45:13.289Z,31.23
2019-03-30T14:47:44.061Z,31.42
2019-03-30T14:50:14.817Z,33.42
2019-03-30T14:52:46.189Z,31.37
2019-03-30T14:55:16.753Z,31.27
2019-03-30T14:57:47.659Z,31.52
2019-03-30T15:00:18.805Z,31.37
2019-03-30T15:02:49.656Z,32.98
2019-03-30T15:05:20.252Z,32.65
2019-03-30T15:07:51.438Z,32.70
2019-03-30T15:10:22.017Z,35.78
2019-03-30T15:12:52.711Z,32.48
2019-03-30T15:15:24.612Z,33.92
2019-03-30T15:17:55.318Z,34.75
2019-03-30T15:20:28.741Z,35.28
2019-03-30T15:25:32.027Z,35.48
2019-03-30T15:28:02.968Z,35.33
2019-03-30T15:30:33.613Z,33.10
2019-03-30T15:33:04.400Z,33.65
2019-03-30T15:35:35.417Z,34.13
2019-03-30T15:38:06.224Z,33.80
2019-03-30T15:40:37.004Z,36.90
2019-03-30T15:43:07.773Z,33.98
2019-03-30T15:45:38.652Z,34.73
2019-03-30T15:48:09.365Z,35.10
2019-03-30T15:50:40.051Z,37.20
2019-03-30T15:53:10.625Z,39.53
2019-03-30T15:55:41.223Z,38.13
2019-03-30T15:58:12.046Z,37.83
2019-03-30T16:00:43.907Z,41.50
2019-03-30T16:03:14.895Z,39.42
2019-03-30T16:05:46.653Z,38.10
2019-03-30T16:08:17.335Z,39.08
2019-03-30T16:10:48.015Z,41.35
2019-03-30T16:13:18.858Z,40.98
2019-03-30T16:15:49.652Z,39.73
2019-03-30T16:18:20.414Z,39.25
2019-03-30T16:20:51.628Z,39.00
2019-03-30T16:23:22.294Z,39.00
2019-03-30T16:25:53.565Z,38.50
2019-03-30T16:28:24.552Z,40.10
2019-03-30T16:30:55.121Z,43.83
2019-03-30T16:33:25.831Z,42.48
2019-03-30T16:35:56.595Z,43.25
2019-03-30T16:38:27.388Z,45.33
2019-03-30T16:40:58.051Z,44.85
2019-03-30T16:43:28.765Z,43.15
2019-03-30T16:45:59.489Z,41.28
2019-03-30T16:48:30.327Z,39.05
2019-03-30T16:51:01.395Z,37.58
2019-03-30T16:53:31.977Z,39.75
2019-03-30T16:56:02.827Z,37.33
2019-03-30T16:58:33.556Z,38.60
2019-03-30T17:01:04.319Z,38.63
2019-03-30T17:03:34.739Z,38.48
2019-03-30T17:06:05.801Z,39.13
2019-03-30T17:08:36.564Z,39.10
2019-03-30T17:11:07.286Z,38.88
2019-03-30T17:13:38.382Z,36.50
2019-03-30T17:16:08.980Z,38.13
2019-03-30T17:18:39.675Z,39.42
2019-03-30T17:21:11.047Z,39.88
2019-03-30T17:23:41.752Z,40.03
2019-03-30T17:26:12.493Z,39.08
2019-03-30T17:28:43.225Z,39.30
2019-03-30T17:31:14.034Z,39.90
2019-03-30T17:33:44.843Z,39.33
2019-03-30T17:36:15.770Z,40.00
2019-03-30T17:38:46.563Z,37.38
2019-03-30T17:41:17.210Z,39.00
2019-03-30T17:43:48.440Z,39.70
2019-03-30T17:46:19.493Z,39.20
2019-03-30T17:48:50.157Z,39.10
2019-03-30T17:51:20.719Z,40.33
2019-03-30T17:53:51.185Z,40.43
2019-03-30T17:56:21.976Z,42.70
2019-03-30T17:58:52.695Z,41.53
2019-03-30T18:01:23.214Z,41.48
2019-03-30T18:03:54.008Z,42.25
2019-03-30T18:06:24.836Z,42.13
2019-03-30T18:08:55.548Z,42.23
2019-03-30T18:11:26.306Z,39.83
2019-03-30T18:13:57.293Z,42.10
2019-03-30T18:16:27.989Z,40.83
2019-03-30T18:18:58.660Z,40.90
2019-03-30T18:21:29.601Z,41.73
2019-03-30T18:24:00.191Z,42.10
2019-03-30T18:26:31.162Z,42.88
2019-03-30T18:29:01.741Z,42.15
2019-03-30T18:31:34.727Z,40.92
2019-03-30T18:34:05.468Z,42.05
2019-03-30T18:36:36.377Z,39.20
2019-03-30T18:39:09.778Z,38.83
2019-03-30T18:41:40.411Z,37.48
2019-03-30T18:44:11.284Z,39.83
2019-03-30T18:46:42.066Z,38.63
2019-03-30T18:49:12.850Z,40.08
2019-03-30T18:51:45.278Z,38.73
2019-03-30T18:54:16.240Z,41.37
2019-03-30T18:56:46.776Z,41.83
2019-03-30T18:59:17.521Z,42.17
2019-03-30T19:01:48.725Z,41.85
2019-03-30T19:04:19.499Z,40.90
2019-03-30T19:06:50.186Z,41.13
2019-03-30T19:09:21.182Z,42.62
2019-03-30T19:11:52.114Z,43.30
2019-03-30T19:14:22.847Z,41.65
2019-03-30T19:16:53.784Z,43.68
2019-03-30T19:19:24.580Z,42.88
2019-03-30T19:21:55.127Z,44.20
2019-03-30T19:24:26.031Z,44.75
2019-03-30T19:26:56.829Z,46.30
2019-03-30T19:29:27.432Z,47.25
2019-03-30T19:31:58.342Z,47.67
2019-03-30T19:34:29.111Z,47.80
2019-03-30T19:36:59.774Z,47.20
2019-03-30T19:39:30.617Z,48.70
2019-03-30T19:42:01.246Z,48.92
2019-03-30T19:44:31.962Z,47.55
2019-03-30T19:47:02.856Z,50.85
2019-03-30T19:49:33.529Z,50.43
2019-03-30T19:52:05.692Z,49.18
2019-03-30T19:54:36.455Z,48.15
2019-03-30T19:57:07.064Z,48.30
2019-03-30T19:59:37.796Z,49.73
2019-03-30T20:02:08.887Z,48.45
2019-03-30T20:04:39.631Z,46.18
2019-03-30T20:07:10.436Z,47.90
2019-03-30T20:09:41.745Z,48.28
2019-03-30T20:12:12.518Z,49.42
2019-03-30T20:14:44.405Z,47.75
2019-03-30T20:17:15.081Z,48.75
2019-03-30T20:19:45.878Z,50.65
2019-03-30T20:22:16.368Z,48.98
2019-03-30T20:24:47.303Z,48.75
2019-03-30T20:27:18.162Z,49.38
2019-03-30T20:29:48.906Z,49.65
2019-03-30T20:32:19.615Z,49.00
2019-03-30T20:34:50.381Z,49.53
2019-03-30T20:37:21.091Z,51.20
2019-03-30T20:39:52.011Z,50.12
2019-03-30T20:42:22.789Z,50.48
2019-03-30T20:44:53.454Z,48.55
2019-03-30T20:47:24.333Z,48.42
2019-03-30T20:49:55.131Z,48.63
2019-03-30T20:52:25.878Z,48.30
2019-03-30T20:54:56.732Z,46.95
2019-03-30T20:57:27.623Z,46.30
2019-03-30T20:59:58.372Z,45.05
2019-03-30T21:02:29.700Z,46.48
2019-03-30T21:05:00.343Z,46.02
2019-03-30T21:07:31.058Z,47.65
2019-03-30T21:10:02.207Z,46.15
2019-03-30T21:12:32.517Z,46.05
2019-03-30T21:15:03.256Z,44.48
2019-03-30T21:17:34.605Z,44.95
2019-03-30T21:20:06.275Z,46.20
2019-03-30T21:22:37.091Z,44.15
2019-03-30T21:25:08.294Z,48.35
2019-03-30T21:27:38.951Z,44.95
2019-03-30T21:30:10.798Z,44.05
2019-03-30T21:32:41.854Z,43.13
2019-03-30T21:35:12.512Z,44.27
2019-03-30T21:37:42.945Z,43.25
2019-03-30T21:40:13.857Z,43.08
2019-03-30T21:42:44.564Z,45.17
2019-03-30T21:45:15.334Z,44.42
2019-03-30T21:47:46.315Z,43.87
2019-03-30T21:50:17.083Z,43.63
2019-03-30T21:52:48.007Z,43.42
2019-03-30T21:55:19.118Z,44.18
2019-03-30T21:57:49.952Z,43.70
2019-03-30T22:00:23.643Z,42.53
2019-03-30T22:02:54.103Z,45.52
2019-03-30T22:05:24.644Z,43.73
2019-03-30T22:07:55.795Z,44.45
2019-03-30T22:10:28.515Z,42.38
2019-03-30T22:12:59.414Z,43.67
2019-03-30T22:15:30.845Z,43.02
2019-03-30T22:18:01.433Z,43.83
2019-03-30T22:20:32.344Z,40.67
2019-03-30T22:23:03.249Z,42.27
2019-03-30T22:25:33.797Z,42.70
2019-03-30T22:28:05.108Z,43.70
2019-03-30T22:30:35.778Z,41.20
2019-03-30T22:33:06.452Z,43.65
2019-03-30T22:35:37.122Z,45.23
2019-03-30T22:38:08.493Z,43.38
2019-03-30T22:40:41.452Z,42.23
2019-03-30T22:43:11.426Z,42.95
2019-03-30T22:45:44.799Z,42.48
2019-03-30T22:48:15.668Z,42.45
2019-03-30T22:50:46.210Z,40.78
2019-03-30T22:53:16.863Z,41.53
2019-03-30T22:55:47.842Z,39.63
2019-03-30T22:58:18.515Z,42.60
2019-03-30T23:00:50.683Z,44.15
2019-03-30T23:03:21.772Z,47.50
2019-03-30T23:05:52.428Z,46.25
2019-03-30T23:08:23.148Z,45.73
2019-03-30T23:10:54.076Z,45.48
2019-03-30T23:13:24.893Z,44.35
2019-03-30T23:15:55.646Z,44.50
2019-03-30T23:18:26.383Z,42.00
2019-03-30T23:20:57.174Z,40.52
2019-03-30T23:23:27.867Z,39.83
2019-03-30T23:25:58.588Z,36.33
2019-03-30T23:28:29.226Z,36.90
2019-03-30T23:30:59.807Z,38.63
2019-03-30T23:33:30.599Z,38.40
2019-03-30T23:36:01.085Z,35.68
2019-03-30T23:38:31.871Z,35.58
2019-03-30T23:41:02.695Z,36.38
2019-03-30T23:43:33.310Z,37.03
2019-03-30T23:46:04.103Z,36.48
2019-03-30T23:48:34.995Z,37.48
2019-03-30T23:51:05.771Z,35.98
2019-03-30T23:53:36.420Z,35.85
2019-03-30T23:56:09.868Z,34.60
2019-03-30T23:58:40.618Z,34.05
